Shaw Air Force Base Sumter US
ICAO: KSSC
IATA: SSC
Category: Large
Scheduled Services: No

Elevation: 241 ft
TransAlt. 18000 ft.

Airport Communications:
APP/DEP:125.4
ATIS:132.125
CLNC DEL:121.8
GND:126.1
PMSV METRO:34.25
COMD POST:38.13
PTD:139.6
TWR:126.65

KSSC Zoom In..

If you have problems with the map follow the link
https://www.worldairports.se/pages/airport.php?
ICAO=KSSC

Runways:

(A) RW 04L length 10014 ft width 150 ft
ILS 110.10 / hdg 40

(B) RW 04R length 8001 ft width 150 ft
---- / hdg 40

(C) RW 22L length 8001 ft width 150 ft
---- / hdg 220

(D) RW 22R length 10014 ft width 150 ft
ILS 108.70 / hdg 220

Location; KSSC
Day. 26 / Time. 01.56 Zulu
* Altimeter: 30.01
* Temperature: 08° c. 46.4°f.
* Wind from: 270° Speed 07 kn.
Dewpoint: 03° c.
Visibility: 10 Statute Miles.
Clouds: Overcast 4500 ft.

KSSC 260156Z AUTO 27007KT 10SM OVC045 08/03 A3001 RMK AO2 SLP165 T00840026 $


Wind From 270°
Speed 07 kn.

 
 
jpsmedia worldairports.se 2020   terms of use